Time;durP1;ratioP1;P1;durP2;ratioP2;P2;SDS_P1;SDS_P2;PMS_P1;PMS_P2;Temp;Humidity;BMP_temperature;BMP_pressure;BME280_temperature;BME280_humidity;BME280_pressure;Samples;Min_cycle;Max_cycle;Signal;HPM_P1;HPM_P2
2024/01/16 00:01:06;;;;;;;3.28;2.60;;;-2.00;99.90;;;;;;4907735;29;20160;-35
2024/01/16 00:03:32;;;;;;;1.95;1.85;;;-2.00;99.90;;;;;;4908845;29;20538;-34
2024/01/16 00:05:57;;;;;;;1.80;1.70;;;-2.10;99.90;;;;;;4909276;29;20119;-33
2024/01/16 00:08:23;;;;;;;2.05;1.55;;;-2.10;99.90;;;;;;4909739;29;20048;-33
2024/01/16 00:10:50;;;;;;;1.90;1.80;;;-2.10;99.90;;;;;;4901533;29;20024;-34
2024/01/16 00:13:15;;;;;;;3.10;1.77;;;-2.10;99.90;;;;;;4910261;29;20023;-36
2024/01/16 00:15:44;;;;;;;1.75;1.65;;;-2.10;99.90;;;;;;4908156;29;20651;-35
2024/01/16 00:18:09;;;;;;;1.90;1.80;;;-2.10;99.90;;;;;;4905367;29;20032;-33
2024/01/16 00:20:35;;;;;;;1.80;1.70;;;-2.10;99.90;;;;;;4910613;29;20094;-32
2024/01/16 00:23:01;;;;;;;2.25;2.00;;;-2.10;99.90;;;;;;4909726;29;20040;-34
2024/01/16 00:25:26;;;;;;;3.97;2.65;;;-2.10;99.90;;;;;;4907907;29;20044;-33
2024/01/16 00:27:52;;;;;;;1.88;1.77;;;-2.10;99.90;;;;;;4911294;29;20541;-36
2024/01/16 00:30:18;;;;;;;1.25;1.23;;;-2.10;99.90;;;;;;4900955;29;20032;-35
2024/01/16 00:32:44;;;;;;;2.20;2.00;;;-2.20;99.90;;;;;;4907988;29;20032;-36
2024/01/16 00:35:09;;;;;;;3.35;1.45;;;-2.10;99.90;;;;;;4909390;29;20414;-38
2024/01/16 00:37:39;;;;;;;1.85;1.75;;;-2.10;99.90;;;;;;4908524;29;20047;-32
2024/01/16 00:40:08;;;;;;;1.60;1.50;;;-2.10;99.90;;;;;;4906338;29;20024;-37
2024/01/16 00:42:34;;;;;;;6.30;1.30;;;-2.00;99.90;;;;;;4908609;29;20046;-35
2024/01/16 00:45:00;;;;;;;5.38;1.55;;;-2.00;99.90;;;;;;4909076;29;20032;-33
2024/01/16 00:47:25;;;;;;;2.00;1.90;;;-2.00;99.90;;;;;;4906374;29;20368;-37
2024/01/16 00:49:51;;;;;;;1.55;1.45;;;-2.10;99.90;;;;;;4908571;29;20032;-33
2024/01/16 00:52:17;;;;;;;2.42;1.70;;;-2.20;99.90;;;;;;4913244;29;20024;-36
2024/01/16 00:54:43;;;;;;;1.30;1.23;;;-2.10;99.90;;;;;;4906895;29;20506;-37
2024/01/16 00:57:08;;;;;;;2.72;2.05;;;-2.20;99.90;;;;;;4907803;29;20063;-33
2024/01/16 00:59:34;;;;;;;1.17;1.17;;;-2.20;99.90;;;;;;4909787;29;20450;-35
2024/01/16 01:02:00;;;;;;;1.75;1.63;;;-2.20;99.90;;;;;;4905783;29;20063;-33
2024/01/16 01:04:26;;;;;;;1.45;1.40;;;-2.30;99.90;;;;;;4906110;29;20032;-35
2024/01/16 01:06:51;;;;;;;1.45;1.45;;;-2.30;99.90;;;;;;4892929;29;20471;-34
2024/01/16 01:09:17;;;;;;;2.92;1.70;;;-2.30;99.90;;;;;;4907928;29;20161;-35
2024/01/16 01:11:43;;;;;;;1.65;1.55;;;-2.30;99.90;;;;;;4906832;29;20123;-32
2024/01/16 01:14:09;;;;;;;1.83;1.70;;;-2.40;99.90;;;;;;4910154;29;20028;-33
2024/01/16 01:16:34;;;;;;;1.55;1.45;;;-2.40;99.90;;;;;;4910755;29;20032;-33
2024/01/16 01:19:00;;;;;;;2.47;2.28;;;-2.40;99.90;;;;;;4911419;29;20042;-32
2024/01/16 01:21:26;;;;;;;2.05;1.90;;;-2.50;99.90;;;;;;4911369;29;20111;-34
2024/01/16 01:23:52;;;;;;;2.08;1.98;;;-2.50;99.90;;;;;;4907280;29;20040;-35
2024/01/16 01:26:19;;;;;;;1.10;1.10;;;-2.60;99.90;;;;;;4913840;29;20032;-33
2024/01/16 01:28:44;;;;;;;3.10;2.20;;;-2.70;99.90;;;;;;4910372;29;20031;-38
2024/01/16 01:31:13;;;;;;;2.15;1.98;;;-2.80;99.90;;;;;;4908079;29;20045;-37
2024/01/16 01:33:42;;;;;;;;;;;-2.80;99.90;;;;;;4912431;29;20028;-36
2024/01/16 01:36:07;;;;;;;1.90;1.77;;;-2.80;99.90;;;;;;4909764;29;20164;-35
2024/01/16 01:38:33;;;;;;;1.67;1.65;;;-2.80;99.90;;;;;;4911730;29;20036;-33
2024/01/16 01:40:59;;;;;;;1.73;1.63;;;-2.80;99.90;;;;;;4912316;29;20554;-36
2024/01/16 01:43:25;;;;;;;1.98;1.88;;;-2.90;99.90;;;;;;4909823;29;20524;-38
2024/01/16 01:46:08;;;;;;;2.75;1.98;;;-2.90;99.90;;;;;;4906381;29;20043;-37
2024/01/16 01:48:34;;;;;;;1.70;1.60;;;-2.90;99.90;;;;;;4907122;29;20028;-32
2024/01/16 01:51:01;;;;;;;2.22;2.00;;;-2.90;99.90;;;;;;4908445;29;20029;-32
2024/01/16 01:53:28;;;;;;;2.13;2.00;;;-2.90;99.90;;;;;;4911739;29;20553;-33
2024/01/16 01:55:54;;;;;;;1.85;1.75;;;-2.90;99.90;;;;;;4887110;29;20080;-33
2024/01/16 01:58:20;;;;;;;2.00;1.90;;;-3.00;99.90;;;;;;4911458;29;20193;-33
2024/01/16 02:00:46;;;;;;;2.15;1.98;;;-3.00;99.90;;;;;;4908615;29;20036;-34
2024/01/16 02:03:12;;;;;;;2.08;1.98;;;-3.00;99.90;;;;;;4907319;29;20036;-31
2024/01/16 02:05:39;;;;;;;2.65;2.45;;;-3.00;99.90;;;;;;4908662;29;20039;-36
2024/01/16 02:08:05;;;;;;;4.45;3.22;;;-3.00;99.90;;;;;;4906669;29;20622;-32
2024/01/16 02:10:32;;;;;;;2.65;2.15;;;-3.00;99.90;;;;;;4907943;29;20031;-35
2024/01/16 02:12:58;;;;;;;3.30;2.20;;;-3.00;99.90;;;;;;4911207;29;20099;-39
2024/01/16 02:15:24;;;;;;;2.15;2.05;;;-3.10;99.90;;;;;;4905743;29;20024;-40
2024/01/16 02:17:50;;;;;;;2.80;2.53;;;-3.20;99.90;;;;;;4905934;29;20075;-40
2024/01/16 02:20:16;;;;;;;2.28;1.55;;;-3.20;99.90;;;;;;4904975;29;20549;-40
2024/01/16 02:22:48;;;;;;;1.85;1.80;;;-3.20;99.90;;;;;;4907741;29;20024;-37
2024/01/16 02:25:13;;;;;;;1.88;1.77;;;-3.20;99.90;;;;;;4904651;29;20031;-34
2024/01/16 02:27:39;;;;;;;2.80;1.95;;;-3.30;99.90;;;;;;4904270;29;20028;-36
2024/01/16 02:30:06;;;;;;;1.55;1.45;;;-3.30;99.90;;;;;;4907048;29;20036;-34
2024/01/16 02:32:32;;;;;;;1.90;1.80;;;-3.40;99.90;;;;;;4902848;29;20032;-36
2024/01/16 02:34:58;;;;;;;1.98;1.48;;;-3.40;99.90;;;;;;4902660;29;20040;-33
2024/01/16 02:37:24;;;;;;;1.45;1.27;;;-3.50;99.90;;;;;;4904603;29;20032;-36
2024/01/16 02:39:49;;;;;;;2.30;2.15;;;-3.50;99.90;;;;;;4905687;29;20058;-34
2024/01/16 02:42:15;;;;;;;3.65;2.63;;;-3.60;99.90;;;;;;4892157;29;20040;-33
2024/01/16 02:44:41;;;;;;;3.53;3.05;;;-3.60;99.90;;;;;;4905804;29;20027;-33
2024/01/16 02:47:07;;;;;;;1.77;1.67;;;-3.60;99.90;;;;;;4892783;29;20032;-35
2024/01/16 02:49:33;;;;;;;4.65;2.05;;;-3.60;99.90;;;;;;4905691;29;20028;-35
2024/01/16 02:51:58;;;;;;;2.50;2.17;;;-3.60;99.90;;;;;;4907445;29;20442;-34
2024/01/16 02:54:24;;;;;;;2.13;1.90;;;-3.50;99.90;;;;;;4903613;29;20044;-37
2024/01/16 02:56:50;;;;;;;2.03;1.92;;;-3.50;99.90;;;;;;4904709;29;20910;-35
2024/01/16 02:59:15;;;;;;;1.77;1.77;;;-3.60;99.90;;;;;;4904267;29;20095;-37
2024/01/16 03:01:41;;;;;;;2.65;1.98;;;-3.60;99.90;;;;;;4907057;29;20123;-38
2024/01/16 03:04:07;;;;;;;1.77;1.67;;;-3.50;99.90;;;;;;4903346;29;20391;-33
2024/01/16 03:06:32;;;;;;;2.13;1.90;;;-3.60;99.90;;;;;;4905330;29;20044;-34
2024/01/16 03:08:58;;;;;;;3.10;1.92;;;-3.50;99.90;;;;;;4898992;29;20722;-36
2024/01/16 03:11:24;;;;;;;3.30;2.30;;;-3.60;99.90;;;;;;4894045;29;20037;-36
2024/01/16 03:13:52;;;;;;;2.90;1.88;;;-3.70;99.90;;;;;;4899266;29;20478;-35
2024/01/16 03:16:17;;;;;;;1.00;1.00;;;-3.80;99.90;;;;;;4890966;29;20032;-36
2024/01/16 03:18:43;;;;;;;1.60;1.60;;;-3.80;99.90;;;;;;4899363;29;20032;-39
2024/01/16 03:21:10;;;;;;;1.67;1.60;;;-3.70;99.90;;;;;;4906853;29;20039;-33
2024/01/16 03:23:35;;;;;;;4.93;1.67;;;-3.70;99.90;;;;;;4901226;29;20122;-36
2024/01/16 03:26:01;;;;;;;1.83;1.75;;;-3.70;99.90;;;;;;4902611;29;20570;-34
2024/01/16 03:28:27;;;;;;;0.95;0.95;;;-3.80;99.90;;;;;;4898338;29;20348;-34
2024/01/16 03:30:53;;;;;;;2.13;1.83;;;-4.20;99.90;;;;;;4899321;29;20047;-33
2024/01/16 03:33:20;;;;;;;1.52;1.45;;;-4.30;99.90;;;;;;4902717;29;20029;-39
2024/01/16 03:35:45;;;;;;;1.15;1.15;;;-4.40;99.90;;;;;;4897567;29;20633;-36
2024/01/16 03:38:11;;;;;;;2.10;2.00;;;-4.80;99.90;;;;;;4905712;29;20087;-41
2024/01/16 03:40:36;;;;;;;2.25;1.92;;;-4.90;99.90;;;;;;4902532;29;20498;-41
2024/01/16 03:43:02;;;;;;;1.75;1.75;;;-5.00;99.90;;;;;;4903050;29;20029;-39
2024/01/16 03:45:28;;;;;;;1.90;1.80;;;-5.10;99.90;;;;;;4907322;29;20050;-34
2024/01/16 03:47:56;;;;;;;1.98;1.88;;;-5.20;99.90;;;;;;4904211;29;20568;-33
2024/01/16 03:50:21;;;;;;;2.20;2.05;;;-5.20;99.90;;;;;;4899084;29;20032;-33
2024/01/16 03:52:47;;;;;;;1.50;1.50;;;-5.20;99.90;;;;;;4904823;29;20041;-34
2024/01/16 03:55:13;;;;;;;2.28;2.17;;;-5.20;99.90;;;;;;4902702;29;20063;-32
2024/01/16 03:57:39;;;;;;;1.05;1.05;;;-5.20;99.90;;;;;;4891315;29;20028;-36
2024/01/16 04:00:05;;;;;;;2.55;1.90;;;-5.40;99.90;;;;;;4907530;29;20036;-34
2024/01/16 04:02:32;;;;;;;1.58;1.50;;;-5.40;99.90;;;;;;4902310;29;20045;-38
2024/01/16 04:04:57;;;;;;;2.78;2.15;;;-5.60;99.90;;;;;;4903479;29;20031;-39
2024/01/16 04:07:26;;;;;;;1.73;1.63;;;-5.70;99.90;;;;;;4905599;29;20048;-33
2024/01/16 04:09:51;;;;;;;4.18;1.80;;;-5.80;99.90;;;;;;4903230;29;20044;-33
2024/01/16 04:12:17;;;;;;;1.50;1.50;;;-5.60;99.90;;;;;;4908748;29;20398;-33
2024/01/16 04:14:42;;;;;;;0.93;0.93;;;-5.50;99.90;;;;;;4907061;29;20042;-33
2024/01/16 04:17:08;;;;;;;1.08;1.08;;;-5.50;99.90;;;;;;4907006;29;20028;-33
2024/01/16 04:19:34;;;;;;;1.65;1.63;;;-5.60;99.90;;;;;;4907691;29;20050;-33
2024/01/16 04:22:01;;;;;;;1.20;1.20;;;-5.90;99.90;;;;;;4893162;29;20036;-32
2024/01/16 04:24:27;;;;;;;2.53;2.38;;;-6.00;99.90;;;;;;4906223;29;20052;-33
2024/01/16 04:26:53;;;;;;;2.25;1.60;;;-6.00;99.90;;;;;;4894856;29;20027;-36
2024/01/16 04:29:18;;;;;;;2.63;1.70;;;-5.80;99.90;;;;;;4911285;29;20398;-35
2024/01/16 04:31:44;;;;;;;2.78;2.53;;;-5.70;99.90;;;;;;4907825;29;20028;-39
2024/01/16 04:34:09;;;;;;;9.68;2.60;;;-5.90;99.90;;;;;;4910028;29;20032;-33
2024/01/16 04:36:35;;;;;;;1.30;1.30;;;-6.10;99.90;;;;;;4900034;29;20470;-35
2024/01/16 04:39:01;;;;;;;1.20;1.10;;;-6.40;99.90;;;;;;4908177;29;20036;-32
2024/01/16 04:41:26;;;;;;;1.67;1.58;;;-6.60;99.90;;;;;;4909279;29;20107;-34
2024/01/16 04:43:52;;;;;;;2.95;2.75;;;-6.50;99.90;;;;;;4909932;29;20032;-33
2024/01/16 04:46:18;;;;;;;1.60;1.55;;;-6.50;99.90;;;;;;4906220;29;20455;-33
2024/01/16 04:48:43;;;;;;;1.23;1.23;;;-6.60;99.90;;;;;;4908813;29;20103;-40
2024/01/16 04:51:09;;;;;;;2.17;2.08;;;-6.60;99.90;;;;;;4908316;29;20375;-33
2024/01/16 04:53:35;;;;;;;2.33;2.22;;;-6.80;99.90;;;;;;4903596;29;20028;-33
2024/01/16 04:56:00;;;;;;;1.05;1.05;;;-6.80;99.90;;;;;;4909579;29;20075;-35
2024/01/16 04:58:26;;;;;;;1.30;1.30;;;-6.80;99.90;;;;;;4907897;29;20039;-32
2024/01/16 05:00:51;;;;;;;1.25;1.25;;;-6.90;99.90;;;;;;4910354;29;20123;-34
2024/01/16 05:03:17;;;;;;;1.80;1.67;;;-7.00;99.90;;;;;;4911316;29;20143;-33
2024/01/16 05:05:43;;;;;;;1.80;1.80;;;-7.00;99.90;;;;;;4907362;29;20494;-36
2024/01/16 05:08:09;;;;;;;1.40;1.40;;;-7.10;99.90;;;;;;4910450;29;20056;-33
2024/01/16 05:10:34;;;;;;;1.60;1.50;;;-7.10;99.90;;;;;;4910648;29;20068;-33
2024/01/16 05:13:00;;;;;;;1.40;1.35;;;-6.90;99.90;;;;;;4909976;29;20136;-36
2024/01/16 05:15:26;;;;;;;1.63;1.52;;;-6.70;99.90;;;;;;4906353;29;20027;-34
2024/01/16 05:17:53;;;;;;;1.83;1.80;;;-6.70;99.90;;;;;;4909001;29;20028;-36
2024/01/16 05:20:19;;;;;;;5.72;2.25;;;-6.60;99.90;;;;;;4909797;29;20043;-33
2024/01/16 05:22:45;;;;;;;8.50;3.35;;;-6.50;99.90;;;;;;4911704;29;20028;-37
2024/01/16 05:25:10;;;;;;;16.85;6.82;;;-6.40;99.90;;;;;;4910130;29;20530;-33
2024/01/16 05:27:36;;;;;;;11.57;7.97;;;-6.30;99.90;;;;;;4912199;29;20445;-33
2024/01/16 05:30:02;;;;;;;8.75;5.40;;;-6.20;99.90;;;;;;4907319;29;20489;-33
2024/01/16 05:32:27;;;;;;;17.55;9.15;;;-6.10;99.90;;;;;;4909057;29;20495;-34
2024/01/16 05:34:53;;;;;;;16.95;6.93;;;-6.10;99.90;;;;;;4908824;29;20027;-36
2024/01/16 05:37:21;;;;;;;3.03;2.30;;;-6.00;99.90;;;;;;4906318;29;20059;-34
2024/01/16 05:39:47;;;;;;;11.80;5.53;;;-5.90;99.90;;;;;;4906227;29;20025;-34
2024/01/16 05:42:13;;;;;;;2.70;2.45;;;-5.90;99.90;;;;;;4907250;29;20039;-36
2024/01/16 05:44:38;;;;;;;2.13;2.03;;;-5.90;99.90;;;;;;4911580;29;20032;-37
2024/01/16 05:47:04;;;;;;;1.90;1.83;;;-5.90;99.90;;;;;;4909854;29;20031;-33
2024/01/16 05:49:30;;;;;;;8.80;5.95;;;-6.00;99.90;;;;;;4906865;29;20068;-33
2024/01/16 05:51:55;;;;;;;5.57;3.10;;;-6.00;99.90;;;;;;4904618;29;20064;-35
2024/01/16 05:54:21;;;;;;;5.43;2.92;;;-6.00;99.90;;;;;;4906389;29;20709;-34
2024/01/16 05:56:47;;;;;;;4.10;3.03;;;-6.00;99.90;;;;;;4907275;29;20055;-36
2024/01/16 05:59:12;;;;;;;4.15;3.08;;;-5.90;99.90;;;;;;4906675;29;20043;-38
2024/01/16 06:01:38;;;;;;;3.92;2.25;;;-5.90;99.90;;;;;;4908203;29;20044;-38
2024/01/16 06:04:04;;;;;;;2.92;2.28;;;-6.00;99.90;;;;;;4901953;29;20044;-36
2024/01/16 06:06:30;;;;;;;4.85;2.83;;;-6.10;99.90;;;;;;4911384;29;20817;-35
2024/01/16 06:08:57;;;;;;;4.00;3.78;;;-6.20;99.90;;;;;;4908586;29;20051;-34
2024/01/16 06:11:32;;;;;;;4.03;2.60;;;-6.10;99.90;;;;;;4907779;29;20036;-33
2024/01/16 06:13:59;;;;;;;1.25;1.25;;;-6.10;99.90;;;;;;4907230;29;20733;-34
2024/01/16 06:16:24;;;;;;;6.95;2.40;;;-6.10;99.90;;;;;;4907984;29;20083;-37
2024/01/16 06:18:50;;;;;;;2.55;2.45;;;-6.10;99.90;;;;;;4907640;29;20063;-33
2024/01/16 06:21:17;;;;;;;3.17;2.70;;;-6.00;99.90;;;;;;4913408;29;20043;-34
2024/01/16 06:23:43;;;;;;;19.77;11.80;;;-6.00;99.90;;;;;;4910666;29;20036;-35
2024/01/16 06:26:09;;;;;;;3.65;3.38;;;-6.00;99.90;;;;;;4910206;29;20044;-32
2024/01/16 06:28:34;;;;;;;19.73;10.65;;;-6.00;99.90;;;;;;4910471;29;20139;-33
2024/01/16 06:31:00;;;;;;;14.57;4.32;;;-5.90;99.90;;;;;;4908051;29;20119;-36
2024/01/16 06:33:25;;;;;;;12.60;6.90;;;-5.90;99.90;;;;;;4907154;29;20039;-33
2024/01/16 06:35:51;;;;;;;33.72;18.65;;;-5.90;99.90;;;;;;4904017;29;20028;-34
2024/01/16 06:38:17;;;;;;;17.85;10.52;;;-5.90;99.90;;;;;;4907833;29;20036;-33
2024/01/16 06:40:42;;;;;;;30.30;9.88;;;-5.80;99.90;;;;;;4905889;29;20070;-34
2024/01/16 06:43:08;;;;;;;11.63;6.57;;;-5.80;99.90;;;;;;4905756;29;20028;-34
2024/01/16 06:45:34;;;;;;;5.45;4.45;;;-5.70;99.90;;;;;;4904897;29;20176;-36
2024/01/16 06:48:00;;;;;;;11.15;4.57;;;-5.70;99.90;;;;;;4904819;29;20043;-34
2024/01/16 06:50:25;;;;;;;6.28;4.45;;;-5.70;99.90;;;;;;4908978;29;20039;-34
2024/01/16 06:52:51;;;;;;;4.28;3.60;;;-5.70;99.90;;;;;;4902621;29;20032;-34
2024/01/16 06:55:16;;;;;;;2.97;2.78;;;-5.70;99.90;;;;;;4907330;29;20024;-33
2024/01/16 06:57:42;;;;;;;8.40;3.63;;;-5.70;99.90;;;;;;4903532;29;20035;-39
2024/01/16 07:00:08;;;;;;;4.45;3.72;;;-5.70;99.90;;;;;;4902866;29;20056;-33
2024/01/16 07:02:34;;;;;;;3.47;2.58;;;-5.70;99.90;;;;;;4899448;29;20074;-41
2024/01/16 07:04:59;;;;;;;2.75;2.65;;;-5.80;99.90;;;;;;4902580;29;20036;-41
2024/01/16 07:07:25;;;;;;;2.10;2.03;;;-5.90;99.90;;;;;;4904154;29;20076;-41
2024/01/16 07:09:51;;;;;;;3.20;2.90;;;-6.00;99.90;;;;;;4906638;29;20048;-40
2024/01/16 07:12:16;;;;;;;3.13;3.03;;;-6.00;99.90;;;;;;4906671;29;20024;-42
2024/01/16 07:14:42;;;;;;;3.15;2.53;;;-6.20;99.90;;;;;;4905346;29;20115;-42
2024/01/16 07:17:07;;;;;;;2.65;2.55;;;-6.20;99.90;;;;;;4905968;29;20032;-42
2024/01/16 07:19:33;;;;;;;3.40;3.15;;;-6.20;99.90;;;;;;4904689;29;20115;-42
2024/01/16 07:21:59;;;;;;;2.88;1.98;;;-6.10;99.90;;;;;;4904488;29;20422;-37
2024/01/16 07:24:24;;;;;;;3.35;3.08;;;-6.20;99.90;;;;;;4906509;29;20127;-41
2024/01/16 07:26:50;;;;;;;2.72;2.05;;;-6.20;99.90;;;;;;4904765;29;20036;-42
2024/01/16 07:29:15;;;;;;;1.83;1.83;;;-6.30;99.90;;;;;;4900223;29;20107;-42
2024/01/16 07:31:41;;;;;;;10.27;2.88;;;-6.40;99.90;;;;;;4900846;29;20041;-41
2024/01/16 07:34:07;;;;;;;2.45;2.35;;;-6.30;99.90;;;;;;4902045;29;20485;-38
2024/01/16 07:36:32;;;;;;;2.90;2.67;;;-6.20;99.90;;;;;;4905984;29;20035;-39
2024/01/16 07:38:58;;;;;;;10.23;3.67;;;-6.30;99.90;;;;;;4903949;29;20032;-41
2024/01/16 07:41:24;;;;;;;3.15;2.42;;;-6.30;99.90;;;;;;4901706;29;20031;-41
2024/01/16 07:43:49;;;;;;;2.38;2.00;;;-6.20;99.90;;;;;;4905962;29;20474;-40
2024/01/16 07:46:16;;;;;;;3.17;2.95;;;-6.20;99.90;;;;;;4903468;29;20028;-39
2024/01/16 07:48:41;;;;;;;4.85;3.63;;;-6.20;99.90;;;;;;4902995;29;20127;-39
2024/01/16 07:51:07;;;;;;;2.55;2.38;;;-6.20;99.90;;;;;;4902486;29;20133;-40
2024/01/16 07:53:33;;;;;;;7.85;3.30;;;-6.20;99.90;;;;;;4906189;29;20692;-41
2024/01/16 07:55:58;;;;;;;3.53;2.85;;;-6.20;99.90;;;;;;4902198;29;20028;-41
2024/01/16 07:58:24;;;;;;;3.05;2.92;;;-6.20;99.90;;;;;;4904319;29;20096;-41
2024/01/16 08:00:49;;;;;;;6.00;2.03;;;-6.20;99.90;;;;;;4903345;29;20470;-41
2024/01/16 08:03:15;;;;;;;6.75;2.38;;;-6.20;99.90;;;;;;4905119;29;20120;-41
2024/01/16 08:05:41;;;;;;;1.33;1.33;;;-6.30;99.90;;;;;;4903753;29;20399;-39
2024/01/16 08:08:09;;;;;;;4.38;3.00;;;-6.40;99.90;;;;;;4899424;29;20046;-42
2024/01/16 08:10:35;;;;;;;;;;;-6.30;99.90;;;;;;4908008;29;20032;-40
2024/01/16 08:13:01;;;;;;;2.85;2.75;;;-6.20;99.90;;;;;;4908343;29;20293;-33
2024/01/16 08:15:26;;;;;;;3.92;3.25;;;-6.20;99.90;;;;;;4911917;29;20115;-32
2024/01/16 08:17:52;;;;;;;4.10;3.83;;;-6.10;99.90;;;;;;4909010;29;20244;-38
2024/01/16 08:20:17;;;;;;;3.13;2.83;;;-6.00;99.90;;;;;;4910181;29;20028;-38
2024/01/16 08:22:43;;;;;;;3.72;2.67;;;-6.00;99.90;;;;;;4908970;29;20031;-37
2024/01/16 08:25:09;;;;;;;2.70;2.55;;;-6.00;99.90;;;;;;4910016;29;20024;-33
2024/01/16 08:27:37;;;;;;;2.08;2.05;;;-6.00;99.90;;;;;;4908314;29;20036;-32
2024/01/16 08:30:03;;;;;;;3.47;2.72;;;-5.90;99.90;;;;;;4892094;29;20028;-35
2024/01/16 08:32:29;;;;;;;1.73;1.73;;;-5.80;99.90;;;;;;4904771;29;20044;-41
2024/01/16 08:34:55;;;;;;;2.75;2.58;;;-5.80;99.90;;;;;;4905596;29;20036;-43
2024/01/16 08:37:21;;;;;;;1.73;1.65;;;-5.70;99.90;;;;;;4901279;29;20036;-41
2024/01/16 08:39:46;;;;;;;4.50;3.63;;;-5.70;99.90;;;;;;4906982;29;20035;-42
2024/01/16 08:42:12;;;;;;;3.92;2.78;;;-5.60;99.90;;;;;;4909616;29;20103;-40
2024/01/16 08:44:39;;;;;;;2.28;2.17;;;-5.50;99.90;;;;;;4906290;29;20033;-35
2024/01/16 08:47:06;;;;;;;4.13;3.88;;;-5.40;99.90;;;;;;4906912;29;20071;-41
2024/01/16 08:49:32;;;;;;;4.93;2.67;;;-5.40;99.90;;;;;;4907213;29;20420;-40
2024/01/16 08:51:58;;;;;;;3.45;3.15;;;-5.40;99.90;;;;;;4904638;29;20032;-39
2024/01/16 08:54:25;;;;;;;2.47;2.33;;;-5.40;99.90;;;;;;4906233;29;20054;-41
2024/01/16 08:56:51;;;;;;;2.70;2.45;;;-5.30;99.90;;;;;;4905734;29;20112;-40
2024/01/16 08:59:17;;;;;;;2.97;2.72;;;-5.20;99.90;;;;;;4908374;29;20410;-43
2024/01/16 09:01:43;;;;;;;5.60;3.63;;;-5.10;99.90;;;;;;4893604;29;20063;-42
2024/01/16 09:04:08;;;;;;;4.97;3.20;;;-5.10;99.90;;;;;;4909292;29;20565;-41
2024/01/16 09:06:34;;;;;;;2.92;2.67;;;-5.10;99.90;;;;;;4907012;29;20516;-40
2024/01/16 09:08:59;;;;;;;9.80;3.38;;;-5.00;99.90;;;;;;4902996;29;20052;-36
2024/01/16 09:11:25;;;;;;;2.17;2.08;;;-5.00;99.90;;;;;;4907191;29;20494;-41
2024/01/16 09:13:51;;;;;;;2.75;2.65;;;-5.00;99.90;;;;;;4907205;29;20032;-38
2024/01/16 09:16:17;;;;;;;4.40;3.38;;;-4.90;99.90;;;;;;4904821;29;20091;-41
2024/01/16 09:18:43;;;;;;;4.60;2.67;;;-4.90;99.90;;;;;;4905687;29;20042;-36
2024/01/16 09:21:08;;;;;;;3.78;3.47;;;-4.80;99.90;;;;;;4908497;29;20032;-41
2024/01/16 09:23:34;;;;;;;3.47;3.28;;;-4.80;99.90;;;;;;4904322;29;20491;-40
2024/01/16 09:25:59;;;;;;;3.15;2.80;;;-4.70;99.90;;;;;;4906432;29;20032;-39
2024/01/16 09:28:25;;;;;;;3.45;3.20;;;-4.60;99.90;;;;;;4903800;29;20798;-41
2024/01/16 09:30:51;;;;;;;4.40;4.00;;;-4.50;99.90;;;;;;4906799;29;20040;-41
2024/01/16 09:33:17;;;;;;;3.92;3.60;;;-4.30;99.90;;;;;;4903253;29;20464;-40
2024/01/16 09:35:43;;;;;;;6.68;3.50;;;-4.20;99.90;;;;;;4906955;29;20051;-40
2024/01/16 09:38:08;;;;;;;3.15;2.92;;;-4.00;99.90;;;;;;4905347;29;20032;-41
2024/01/16 09:40:35;;;;;;;4.20;3.90;;;-4.00;99.90;;;;;;4908303;29;20028;-41
2024/01/16 09:43:01;;;;;;;5.78;3.88;;;-3.90;99.90;;;;;;4907396;29;20565;-41
2024/01/16 09:45:29;;;;;;;6.15;3.97;;;-3.70;99.90;;;;;;4906641;29;20107;-41
2024/01/16 09:47:56;;;;;;;7.30;4.40;;;-3.60;99.90;;;;;;4905526;29;20040;-39
2024/01/16 09:50:22;;;;;;;3.83;3.17;;;-3.60;99.90;;;;;;4906365;29;20402;-41
2024/01/16 09:52:49;;;;;;;4.43;3.72;;;-3.50;99.90;;;;;;4904233;29;20500;-39
2024/01/16 09:55:17;;;;;;;4.32;3.30;;;-3.40;99.90;;;;;;4903778;29;20387;-39
2024/01/16 09:57:45;;;;;;;4.32;3.15;;;-3.30;99.90;;;;;;4904896;29;20471;-39
2024/01/16 10:00:12;;;;;;;2.78;2.58;;;-3.30;99.90;;;;;;4905016;29;20095;-40
2024/01/16 10:02:41;;;;;;;2.95;2.75;;;-3.20;99.90;;;;;;4907155;29;20043;-39
2024/01/16 10:05:11;;;;;;;3.13;2.45;;;-3.30;99.90;;;;;;4902566;29;20122;-40
2024/01/16 10:07:45;;;;;;;1.50;1.48;;;-3.30;99.90;;;;;;4903501;29;20385;-38
2024/01/16 10:10:10;;;;;;;3.28;3.00;;;-3.30;99.90;;;;;;4887725;29;20036;-39
2024/01/16 10:12:37;;;;;;;3.33;3.03;;;-3.30;99.90;;;;;;4894444;29;20032;-40
2024/01/16 10:15:07;;;;;;;1.63;1.52;;;-3.30;99.90;;;;;;4905482;29;20164;-40
2024/01/16 10:17:40;;;;;;;2.72;2.53;;;-3.30;99.90;;;;;;4909391;29;20028;-41
2024/01/16 10:20:07;;;;;;;4.97;3.75;;;-3.20;99.90;;;;;;4900942;29;20028;-38
2024/01/16 10:22:33;;;;;;;2.70;2.55;;;-3.20;99.90;;;;;;4902680;29;20064;-39
2024/01/16 10:25:08;;;;;;;8.80;3.33;;;-3.10;99.90;;;;;;4901611;29;20146;-41
2024/01/16 10:27:34;;;;;;;2.88;2.40;;;-3.00;99.90;;;;;;4903943;29;20024;-41
2024/01/16 10:30:00;;;;;;;4.10;3.60;;;-3.00;99.90;;;;;;4903807;29;20040;-40
2024/01/16 10:32:29;;;;;;;2.88;2.28;;;-2.90;99.90;;;;;;4906149;29;20039;-35
2024/01/16 10:35:11;;;;;;;3.33;3.03;;;-2.70;99.90;;;;;;4905822;29;20036;-37
2024/01/16 10:37:44;;;;;;;8.80;3.60;;;-2.50;99.90;;;;;;4904795;29;20032;-36
2024/01/16 10:40:10;;;;;;;3.85;3.55;;;-2.40;99.90;;;;;;4905756;29;20465;-33
2024/01/16 10:42:37;;;;;;;2.90;2.63;;;-2.30;99.90;;;;;;4907359;29;20416;-33
2024/01/16 10:45:05;;;;;;;3.42;3.03;;;-2.30;99.90;;;;;;4899723;29;20027;-33
2024/01/16 10:47:34;;;;;;;3.78;2.90;;;-2.20;99.90;;;;;;4904093;29;20067;-35
2024/01/16 10:50:00;;;;;;;2.75;2.55;;;-2.10;99.90;;;;;;4900963;29;20486;-33
2024/01/16 10:52:28;;;;;;;4.25;3.95;;;-2.20;99.90;;;;;;4906162;29;20129;-41
2024/01/16 10:54:59;;;;;;;4.78;4.13;;;-2.20;99.90;;;;;;4906579;29;20084;-40
2024/01/16 10:57:26;;;;;;;5.95;4.55;;;-2.20;99.90;;;;;;4907877;29;20209;-39
2024/01/16 11:00:08;;;;;;;4.97;3.13;;;-2.20;99.90;;;;;;4905753;29;20501;-40
2024/01/16 11:02:46;;;;;;;8.63;4.10;;;-2.10;99.90;;;;;;4903980;29;20405;-42
2024/01/16 11:05:13;;;;;;;4.70;3.70;;;-2.10;99.90;;;;;;4904600;29;20099;-41
2024/01/16 11:07:40;;;;;;;8.55;4.43;;;-2.00;99.90;;;;;;4905401;29;20044;-37
2024/01/16 11:10:08;;;;;;;6.50;3.22;;;-2.00;99.90;;;;;;4901482;29;20427;-41
2024/01/16 11:12:35;;;;;;;3.28;2.90;;;-2.00;99.90;;;;;;4902879;29;20390;-42
2024/01/16 11:15:03;;;;;;;5.43;3.70;;;-1.90;99.90;;;;;;4907094;29;20827;-36
2024/01/16 11:17:31;;;;;;;;;;;-1.80;99.90;;;;;;4905970;29;20104;-41
2024/01/16 11:19:57;;;;;;;2.90;2.65;;;-1.80;99.90;;;;;;4903596;29;19911;-42
2024/01/16 11:22:23;;;;;;;4.03;3.72;;;-1.80;99.90;;;;;;4904955;29;20086;-42
2024/01/16 11:25:11;;;;;;;6.35;3.00;;;-1.70;99.90;;;;;;4903499;29;20036;-41
2024/01/16 11:27:38;;;;;;;5.18;3.15;;;-1.60;99.90;;;;;;4904699;29;20028;-36
2024/01/16 11:30:11;;;;;;;2.97;2.70;;;-1.60;99.90;;;;;;4903062;29;20168;-41
2024/01/16 11:32:41;;;;;;;6.47;3.45;;;-1.70;99.90;;;;;;4903883;29;20047;-35
2024/01/16 11:35:08;;;;;;;3.78;2.53;;;-1.70;99.90;;;;;;4905712;29;20123;-43
2024/01/16 11:37:36;;;;;;;4.28;3.60;;;-1.60;99.90;;;;;;4892564;29;20020;-43
2024/01/16 11:40:24;;;;;;;;;;;-1.50;99.90;;;;;;4901253;29;20454;-39
2024/01/16 11:42:55;;;;;;;3.47;3.13;;;-1.40;99.90;;;;;;4902640;29;19911;-40
2024/01/16 11:45:26;;;;;;;2.47;2.03;;;-1.40;99.90;;;;;;4904069;29;20035;-40
2024/01/16 11:48:11;;;;;;;3.28;2.97;;;-1.30;99.90;;;;;;4905463;29;20096;-37
2024/01/16 11:50:37;;;;;;;4.53;2.55;;;-1.20;99.90;;;;;;4907777;29;20032;-42
2024/01/16 11:53:03;;;;;;;4.15;2.78;;;-1.10;99.90;;;;;;4905496;29;20050;-39
2024/01/16 11:55:31;;;;;;;2.35;2.15;;;-1.00;99.90;;;;;;4905011;29;20035;-36
2024/01/16 11:58:47;;;;;;;4.53;2.72;;;-1.00;99.90;;;;;;4908217;29;20629;-39
2024/01/16 12:01:13;;;;;;;2.88;2.63;;;-1.00;99.90;;;;;;4870336;29;20907;-38
2024/01/16 12:03:39;;;;;;;3.97;3.58;;;-0.90;99.90;;;;;;4871325;29;20062;-35
2024/01/16 12:06:06;;;;;;;2.97;2.60;;;-0.80;99.90;;;;;;4885145;29;20032;-32
2024/01/16 12:08:32;;;;;;;4.50;2.88;;;-0.80;99.90;;;;;;4907339;29;20090;-34
2024/01/16 12:10:59;;;;;;;1.95;1.85;;;-0.90;99.90;;;;;;4891031;29;20040;-33
2024/01/16 12:13:25;;;;;;;2.28;2.13;;;-0.90;99.50;;;;;;4910884;29;20048;-33
2024/01/16 12:16:04;;;;;;;1.90;1.80;;;-0.80;98.90;;;;;;4907899;29;20593;-33
2024/01/16 12:18:30;;;;;;;6.22;2.75;;;-0.80;98.80;;;;;;4911548;29;20079;-33
2024/01/16 12:20:55;;;;;;;5.30;2.25;;;-0.80;99.00;;;;;;4910013;29;20040;-33
2024/01/16 12:23:23;;;;;;;3.85;2.35;;;-0.70;98.90;;;;;;4911539;29;20040;-33
2024/01/16 12:25:52;;;;;;;3.88;2.10;;;-0.70;99.10;;;;;;4906748;29;20036;-34
2024/01/16 12:28:21;;;;;;;2.30;2.20;;;-0.70;99.90;;;;;;4909174;29;20491;-32
2024/01/16 12:30:51;;;;;;;5.15;2.90;;;-0.60;99.90;;;;;;4914434;29;20032;-34
2024/01/16 12:33:22;;;;;;;4.20;2.88;;;-0.60;99.90;;;;;;4905738;29;20052;-33
2024/01/16 12:35:48;;;;;;;3.95;3.15;;;-0.60;99.90;;;;;;4907286;29;20605;-33
2024/01/16 12:38:16;;;;;;;2.80;2.60;;;-0.50;99.90;;;;;;4908910;29;20039;-32
2024/01/16 12:40:44;;;;;;;3.15;2.85;;;-0.60;99.90;;;;;;4904831;29;20060;-34
2024/01/16 12:43:10;;;;;;;4.15;2.78;;;-0.70;99.90;;;;;;4905350;29;20034;-37
2024/01/16 12:45:36;;;;;;;3.75;3.30;;;-0.80;99.90;;;;;;4909889;29;20020;-35